sensor_id;sensor_type;location;lat;lon;timestamp;pressure;altitude;pressure_sealevel;temperature;humidity
70815;BME280;58428;49.478;10.986;2024-02-26T00:00:10;96820.03;;;4.35;100.00
70815;BME280;58428;49.478;10.986;2024-02-26T00:02:36;96815.53;;;4.27;100.00
70815;BME280;58428;49.478;10.986;2024-02-26T00:05:05;96815.72;;;4.22;100.00
70815;BME280;58428;49.478;10.986;2024-02-26T00:07:31;96803.63;;;4.16;100.00
70815;BME280;58428;49.478;10.986;2024-02-26T00:09:58;96802.25;;;4.10;100.00
70815;BME280;58428;49.478;10.986;2024-02-26T00:12:30;96806.81;;;4.10;100.00
70815;BME280;58428;49.478;10.986;2024-02-26T00:14:59;96799.13;;;4.08;100.00
70815;BME280;58428;49.478;10.986;2024-02-26T00:17:27;96798.00;;;4.09;100.00
70815;BME280;58428;49.478;10.986;2024-02-26T00:19:52;96798.78;;;4.10;100.00
70815;BME280;58428;49.478;10.986;2024-02-26T00:22:18;96790.81;;;4.02;100.00
70815;BME280;58428;49.478;10.986;2024-02-26T00:24:45;96798.06;;;4.01;100.00
70815;BME280;58428;49.478;10.986;2024-02-26T00:27:10;96797.59;;;3.99;100.00
70815;BME280;58428;49.478;10.986;2024-02-26T00:29:36;96788.28;;;3.97;100.00
70815;BME280;58428;49.478;10.986;2024-02-26T00:32:01;96791.16;;;3.92;100.00
70815;BME280;58428;49.478;10.986;2024-02-26T00:34:27;96794.47;;;3.89;100.00
70815;BME280;58428;49.478;10.986;2024-02-26T00:36:52;96783.97;;;3.84;100.00
70815;BME280;58428;49.478;10.986;2024-02-26T00:39:20;96781.47;;;3.79;100.00
70815;BME280;58428;49.478;10.986;2024-02-26T00:41:45;96777.72;;;3.71;100.00
70815;BME280;58428;49.478;10.986;2024-02-26T00:44:12;96783.72;;;3.68;100.00
70815;BME280;58428;49.478;10.986;2024-02-26T00:46:37;96779.00;;;3.65;100.00
70815;BME280;58428;49.478;10.986;2024-02-26T00:49:04;96773.53;;;3.62;100.00
70815;BME280;58428;49.478;10.986;2024-02-26T00:51:35;96774.63;;;3.61;100.00
70815;BME280;58428;49.478;10.986;2024-02-26T00:54:00;96779.66;;;3.63;100.00
70815;BME280;58428;49.478;10.986;2024-02-26T00:56:27;96777.63;;;3.60;100.00
70815;BME280;58428;49.478;10.986;2024-02-26T00:58:52;96782.97;;;3.60;100.00
70815;BME280;58428;49.478;10.986;2024-02-26T01:01:18;96782.50;;;3.58;100.00
70815;BME280;58428;49.478;10.986;2024-02-26T01:03:47;96791.50;;;3.53;100.00
70815;BME280;58428;49.478;10.986;2024-02-26T01:06:13;96791.81;;;3.52;100.00
70815;BME280;58428;49.478;10.986;2024-02-26T01:08:39;96791.03;;;3.51;100.00
70815;BME280;58428;49.478;10.986;2024-02-26T01:11:05;96785.53;;;3.48;100.00
70815;BME280;58428;49.478;10.986;2024-02-26T01:13:31;96788.50;;;3.46;100.00
70815;BME280;58428;49.478;10.986;2024-02-26T01:15:57;96790.41;;;3.46;100.00
70815;BME280;58428;49.478;10.986;2024-02-26T01:18:22;96788.69;;;3.41;100.00
70815;BME280;58428;49.478;10.986;2024-02-26T01:20:51;96786.06;;;3.33;100.00
70815;BME280;58428;49.478;10.986;2024-02-26T01:23:20;96789.81;;;3.32;100.00
70815;BME280;58428;49.478;10.986;2024-02-26T01:25:46;96785.91;;;3.29;100.00
70815;BME280;58428;49.478;10.986;2024-02-26T01:28:14;96784.94;;;3.34;100.00
70815;BME280;58428;49.478;10.986;2024-02-26T01:30:39;96788.09;;;3.36;100.00
70815;BME280;58428;49.478;10.986;2024-02-26T01:33:08;96785.72;;;3.34;100.00
70815;BME280;58428;49.478;10.986;2024-02-26T01:35:33;96784.78;;;3.39;100.00
70815;BME280;58428;49.478;10.986;2024-02-26T01:37:59;96770.78;;;3.42;100.00
70815;BME280;58428;49.478;10.986;2024-02-26T01:40:27;96773.59;;;3.45;100.00
70815;BME280;58428;49.478;10.986;2024-02-26T01:42:53;96766.81;;;3.48;100.00
70815;BME280;58428;49.478;10.986;2024-02-26T01:45:20;96760.84;;;3.51;100.00
70815;BME280;58428;49.478;10.986;2024-02-26T01:47:51;96765.84;;;3.52;100.00
70815;BME280;58428;49.478;10.986;2024-02-26T01:50:17;96763.31;;;3.56;100.00
70815;BME280;58428;49.478;10.986;2024-02-26T01:52:44;96762.69;;;3.59;100.00
70815;BME280;58428;49.478;10.986;2024-02-26T01:55:13;96762.50;;;3.64;100.00
70815;BME280;58428;49.478;10.986;2024-02-26T01:57:41;96764.22;;;3.68;100.00
70815;BME280;58428;49.478;10.986;2024-02-26T02:00:09;96771.91;;;3.69;100.00
70815;BME280;58428;49.478;10.986;2024-02-26T02:02:37;96774.72;;;3.73;100.00
70815;BME280;58428;49.478;10.986;2024-02-26T02:05:06;96772.06;;;3.73;100.00
70815;BME280;58428;49.478;10.986;2024-02-26T02:07:35;96777.25;;;3.78;100.00
70815;BME280;58428;49.478;10.986;2024-02-26T02:10:06;96774.25;;;3.79;100.00
70815;BME280;58428;49.478;10.986;2024-02-26T02:12:35;96777.03;;;3.83;100.00
70815;BME280;58428;49.478;10.986;2024-02-26T02:15:07;96776.41;;;3.86;100.00
70815;BME280;58428;49.478;10.986;2024-02-26T02:17:33;96784.25;;;3.91;100.00
70815;BME280;58428;49.478;10.986;2024-02-26T02:19:58;96773.06;;;3.97;100.00
70815;BME280;58428;49.478;10.986;2024-02-26T02:22:23;96771.16;;;3.98;100.00
70815;BME280;58428;49.478;10.986;2024-02-26T02:24:59;96763.22;;;4.09;100.00
70815;BME280;58428;49.478;10.986;2024-02-26T02:27:25;96762.84;;;4.19;100.00
70815;BME280;58428;49.478;10.986;2024-02-26T02:29:51;96768.00;;;4.24;100.00
70815;BME280;58428;49.478;10.986;2024-02-26T02:32:24;96780.72;;;4.27;100.00
70815;BME280;58428;49.478;10.986;2024-02-26T02:35:14;96779.41;;;4.33;100.00
70815;BME280;58428;49.478;10.986;2024-02-26T02:37:40;96783.22;;;4.32;100.00
70815;BME280;58428;49.478;10.986;2024-02-26T02:40:09;96784.06;;;4.24;100.00
70815;BME280;58428;49.478;10.986;2024-02-26T02:42:39;96773.06;;;4.17;100.00
70815;BME280;58428;49.478;10.986;2024-02-26T02:45:05;96774.00;;;4.21;100.00
70815;BME280;58428;49.478;10.986;2024-02-26T02:47:31;96766.56;;;4.27;100.00
70815;BME280;58428;49.478;10.986;2024-02-26T02:49:59;96772.69;;;4.27;100.00
70815;BME280;58428;49.478;10.986;2024-02-26T02:52:25;96763.72;;;4.32;100.00
70815;BME280;58428;49.478;10.986;2024-02-26T02:54:51;96769.16;;;4.35;100.00
70815;BME280;58428;49.478;10.986;2024-02-26T02:57:16;96759.72;;;4.38;100.00
70815;BME280;58428;49.478;10.986;2024-02-26T02:59:41;96766.94;;;4.37;100.00
70815;BME280;58428;49.478;10.986;2024-02-26T03:02:07;96760.28;;;4.43;100.00
70815;BME280;58428;49.478;10.986;2024-02-26T03:04:32;96763.88;;;4.47;100.00
70815;BME280;58428;49.478;10.986;2024-02-26T03:06:58;96761.09;;;4.43;100.00
70815;BME280;58428;49.478;10.986;2024-02-26T03:09:23;96765.16;;;4.49;100.00
70815;BME280;58428;49.478;10.986;2024-02-26T03:11:49;96760.03;;;4.56;100.00
70815;BME280;58428;49.478;10.986;2024-02-26T03:14:15;96755.28;;;4.62;100.00
70815;BME280;58428;49.478;10.986;2024-02-26T03:16:41;96759.91;;;4.53;100.00
70815;BME280;58428;49.478;10.986;2024-02-26T03:19:06;96759.19;;;4.64;100.00
70815;BME280;58428;49.478;10.986;2024-02-26T03:21:33;96757.22;;;4.73;100.00
70815;BME280;58428;49.478;10.986;2024-02-26T03:23:59;96747.22;;;4.82;100.00
70815;BME280;58428;49.478;10.986;2024-02-26T03:26:25;96755.31;;;4.74;100.00
70815;BME280;58428;49.478;10.986;2024-02-26T03:28:51;96756.50;;;4.64;100.00
70815;BME280;58428;49.478;10.986;2024-02-26T03:31:16;96768.13;;;4.68;100.00
70815;BME280;58428;49.478;10.986;2024-02-26T03:33:41;96768.13;;;4.68;100.00
70815;BME280;58428;49.478;10.986;2024-02-26T03:36:07;96768.66;;;4.62;100.00
70815;BME280;58428;49.478;10.986;2024-02-26T03:38:33;96775.91;;;4.61;100.00
70815;BME280;58428;49.478;10.986;2024-02-26T03:40:59;96776.44;;;4.55;100.00
70815;BME280;58428;49.478;10.986;2024-02-26T03:43:24;96776.31;;;4.51;100.00
70815;BME280;58428;49.478;10.986;2024-02-26T03:45:51;96768.31;;;4.43;100.00
70815;BME280;58428;49.478;10.986;2024-02-26T03:48:16;96765.84;;;4.38;100.00
70815;BME280;58428;49.478;10.986;2024-02-26T03:50:45;96761.13;;;4.35;100.00
70815;BME280;58428;49.478;10.986;2024-02-26T03:53:10;96769.63;;;4.37;100.00
70815;BME280;58428;49.478;10.986;2024-02-26T03:55:39;96764.94;;;4.34;100.00
70815;BME280;58428;49.478;10.986;2024-02-26T03:58:07;96765.59;;;4.31;100.00
70815;BME280;58428;49.478;10.986;2024-02-26T04:00:32;96760.97;;;4.40;100.00
70815;BME280;58428;49.478;10.986;2024-02-26T04:02:57;96756.31;;;4.49;100.00
70815;BME280;58428;49.478;10.986;2024-02-26T04:05:24;96763.31;;;4.41;100.00
70815;BME280;58428;49.478;10.986;2024-02-26T04:07:50;96763.63;;;4.40;100.00
70815;BME280;58428;49.478;10.986;2024-02-26T04:10:17;96769.44;;;4.42;100.00
70815;BME280;58428;49.478;10.986;2024-02-26T04:12:43;96767.38;;;4.47;100.00
70815;BME280;58428;49.478;10.986;2024-02-26T04:15:10;96771.88;;;4.55;100.00
70815;BME280;58428;49.478;10.986;2024-02-26T04:17:36;96770.88;;;4.60;100.00
70815;BME280;58428;49.478;10.986;2024-02-26T04:20:03;96778.41;;;4.46;100.00
70815;BME280;58428;49.478;10.986;2024-02-26T04:22:30;96773.28;;;4.53;100.00
70815;BME280;58428;49.478;10.986;2024-02-26T04:25:01;96769.19;;;4.55;100.00
70815;BME280;58428;49.478;10.986;2024-02-26T04:27:29;96775.78;;;4.58;100.00
70815;BME280;58428;49.478;10.986;2024-02-26T04:29:55;96765.66;;;4.63;100.00
70815;BME280;58428;49.478;10.986;2024-02-26T04:32:20;96768.13;;;4.68;100.00
70815;BME280;58428;49.478;10.986;2024-02-26T04:34:46;96772.16;;;4.74;100.00
70815;BME280;58428;49.478;10.986;2024-02-26T04:37:12;96773.09;;;4.78;100.00
70815;BME280;58428;49.478;10.986;2024-02-26T04:39:37;96774.34;;;4.80;100.00
70815;BME280;58428;49.478;10.986;2024-02-26T04:42:03;96778.25;;;4.83;100.00
70815;BME280;58428;49.478;10.986;2024-02-26T04:44:33;96769.34;;;4.91;100.00
70815;BME280;58428;49.478;10.986;2024-02-26T04:46:58;96777.06;;;4.92;100.00
70815;BME280;58428;49.478;10.986;2024-02-26T04:49:27;96774.97;;;4.98;100.00
70815;BME280;58428;49.478;10.986;2024-02-26T04:51:53;96776.06;;;4.97;100.00
70815;BME280;58428;49.478;10.986;2024-02-26T04:54:20;96784.69;;;5.02;100.00
70815;BME280;58428;49.478;10.986;2024-02-26T04:56:48;96778.69;;;5.05;100.00
70815;BME280;58428;49.478;10.986;2024-02-26T04:59:15;96784.84;;;5.06;100.00
70815;BME280;58428;49.478;10.986;2024-02-26T05:01:41;96779.94;;;5.08;100.00
70815;BME280;58428;49.478;10.986;2024-02-26T05:04:11;96783.25;;;5.05;100.00
70815;BME280;58428;49.478;10.986;2024-02-26T05:06:37;96777.88;;;5.05;100.00
70815;BME280;58428;49.478;10.986;2024-02-26T05:09:03;96784.59;;;5.11;100.00
70815;BME280;58428;49.478;10.986;2024-02-26T05:11:30;96784.75;;;5.14;100.00
70815;BME280;58428;49.478;10.986;2024-02-26T05:13:56;96779.84;;;5.16;100.00
70815;BME280;58428;49.478;10.986;2024-02-26T05:16:22;96773.38;;;5.17;100.00
70815;BME280;58428;49.478;10.986;2024-02-26T05:18:53;96785.31;;;5.19;100.00
70815;BME280;58428;49.478;10.986;2024-02-26T05:21:18;96782.88;;;5.26;100.00
70815;BME280;58428;49.478;10.986;2024-02-26T05:23:44;96785.09;;;5.24;100.00
70815;BME280;58428;49.478;10.986;2024-02-26T05:26:11;96786.41;;;5.18;100.00
70815;BME280;58428;49.478;10.986;2024-02-26T05:28:36;96793.38;;;4.99;100.00
70815;BME280;58428;49.478;10.986;2024-02-26T05:31:05;96793.84;;;5.01;100.00
70815;BME280;58428;49.478;10.986;2024-02-26T05:33:30;96793.91;;;5.13;100.00
70815;BME280;58428;49.478;10.986;2024-02-26T05:35:57;96794.00;;;5.16;100.00
70815;BME280;58428;49.478;10.986;2024-02-26T05:38:28;96806.19;;;5.14;100.00
70815;BME280;58428;49.478;10.986;2024-02-26T05:40:57;96814.53;;;5.12;100.00
70815;BME280;58428;49.478;10.986;2024-02-26T05:43:28;96820.13;;;5.08;100.00
70815;BME280;58428;49.478;10.986;2024-02-26T05:45:56;96820.44;;;5.06;100.00
70815;BME280;58428;49.478;10.986;2024-02-26T05:48:22;96816.31;;;5.09;100.00
70815;BME280;58428;49.478;10.986;2024-02-26T05:50:47;96820.13;;;5.08;100.00
70815;BME280;58428;49.478;10.986;2024-02-26T05:53:13;96817.75;;;5.06;100.00
70815;BME280;58428;49.478;10.986;2024-02-26T05:55:41;96817.84;;;4.98;100.00
70815;BME280;58428;49.478;10.986;2024-02-26T05:58:07;96814.09;;;5.11;100.00
70815;BME280;58428;49.478;10.986;2024-02-26T06:00:33;96814.53;;;5.12;100.00
70815;BME280;58428;49.478;10.986;2024-02-26T06:02:58;96817.56;;;5.11;100.00
70815;BME280;58428;49.478;10.986;2024-02-26T06:05:23;96816.78;;;5.11;100.00
70815;BME280;58428;49.478;10.986;2024-02-26T06:07:49;96828.81;;;5.05;100.00
70815;BME280;58428;49.478;10.986;2024-02-26T06:10:15;96816.59;;;5.15;100.00
70815;BME280;58428;49.478;10.986;2024-02-26T06:12:40;96812.13;;;5.19;100.00
70815;BME280;58428;49.478;10.986;2024-02-26T06:15:06;96818.13;;;5.16;100.00
70815;BME280;58428;49.478;10.986;2024-02-26T06:17:35;96817.34;;;5.16;100.00
70815;BME280;58428;49.478;10.986;2024-02-26T06:20:01;96817.56;;;5.11;100.00
70815;BME280;58428;49.478;10.986;2024-02-26T06:22:27;96812.13;;;5.19;100.00
70815;BME280;58428;49.478;10.986;2024-02-26T06:24:52;96817.84;;;5.30;100.00
70815;BME280;58428;49.478;10.986;2024-02-26T06:27:19;96822.34;;;5.38;100.00
70815;BME280;58428;49.478;10.986;2024-02-26T06:29:44;96826.94;;;5.37;100.00
70815;BME280;58428;49.478;10.986;2024-02-26T06:32:11;96831.28;;;5.42;100.00
70815;BME280;58428;49.478;10.986;2024-02-26T06:34:46;96834.88;;;5.46;100.00
70815;BME280;58428;49.478;10.986;2024-02-26T06:37:13;96843.03;;;5.37;100.00
70815;BME280;58428;49.478;10.986;2024-02-26T06:39:38;96849.97;;;5.18;100.00
70815;BME280;58428;49.478;10.986;2024-02-26T06:42:04;96846.81;;;5.36;100.00
70815;BME280;58428;49.478;10.986;2024-02-26T06:44:30;96841.59;;;5.51;100.00
70815;BME280;58428;49.478;10.986;2024-02-26T06:46:58;96836.28;;;5.63;100.00
70815;BME280;58428;49.478;10.986;2024-02-26T06:49:29;96831.38;;;5.65;100.00
70815;BME280;58428;49.478;10.986;2024-02-26T06:52:09;96839.34;;;5.74;100.00
70815;BME280;58428;49.478;10.986;2024-02-26T06:54:38;96837.13;;;5.76;100.00
70815;BME280;58428;49.478;10.986;2024-02-26T06:57:03;96844.50;;;5.79;100.00
70815;BME280;58428;49.478;10.986;2024-02-26T06:59:29;96847.28;;;5.82;100.00
70815;BME280;58428;49.478;10.986;2024-02-26T07:01:54;96858.94;;;5.86;100.00
70815;BME280;58428;49.478;10.986;2024-02-26T07:04:20;96859.50;;;5.91;100.00
70815;BME280;58428;49.478;10.986;2024-02-26T07:06:46;96865.44;;;5.97;100.00
70815;BME280;58428;49.478;10.986;2024-02-26T07:09:14;96860.84;;;5.97;100.00
70815;BME280;58428;49.478;10.986;2024-02-26T07:11:51;96858.28;;;6.01;100.00
70815;BME280;58428;49.478;10.986;2024-02-26T07:14:17;96859.06;;;6.01;100.00
70815;BME280;58428;49.478;10.986;2024-02-26T07:19:19;96856.84;;;6.03;100.00
70815;BME280;58428;49.478;10.986;2024-02-26T07:21:45;96883.81;;;6.07;100.00
70815;BME280;58428;49.478;10.986;2024-02-26T07:24:12;96887.81;;;6.01;100.00
70815;BME280;58428;49.478;10.986;2024-02-26T07:26:38;96883.25;;;6.13;100.00
70815;BME280;58428;49.478;10.986;2024-02-26T07:29:05;96897.25;;;6.30;100.00
70815;BME280;58428;49.478;10.986;2024-02-26T07:31:31;96879.34;;;6.46;100.00
70815;BME280;58428;49.478;10.986;2024-02-26T07:33:57;96893.25;;;6.60;100.00
70815;BME280;58428;49.478;10.986;2024-02-26T07:36:23;96881.34;;;6.73;100.00
70815;BME280;58428;49.478;10.986;2024-02-26T07:38:48;96878.63;;;6.85;100.00
70815;BME280;58428;49.478;10.986;2024-02-26T07:41:18;96878.28;;;6.98;100.00
70815;BME280;58428;49.478;10.986;2024-02-26T07:43:44;96880.28;;;7.13;100.00
70815;BME280;58428;49.478;10.986;2024-02-26T07:46:11;96874.06;;;7.24;100.00
70815;BME280;58428;49.478;10.986;2024-02-26T07:48:37;96873.50;;;7.31;100.00
70815;BME280;58428;49.478;10.986;2024-02-26T07:51:04;96873.09;;;7.44;100.00
70815;BME280;58428;49.478;10.986;2024-02-26T07:53:32;96870.56;;;7.63;100.00
70815;BME280;58428;49.478;10.986;2024-02-26T07:55:57;96885.19;;;7.77;100.00
70815;BME280;58428;49.478;10.986;2024-02-26T07:58:26;96874.88;;;7.94;100.00
70815;BME280;58428;49.478;10.986;2024-02-26T08:01:03;96879.53;;;8.09;100.00
70815;BME280;58428;49.478;10.986;2024-02-26T08:03:28;96885.84;;;8.16;100.00
70815;BME280;58428;49.478;10.986;2024-02-26T08:05:54;96888.13;;;8.30;100.00
70815;BME280;58428;49.478;10.986;2024-02-26T08:08:20;96892.75;;;8.29;100.00
70815;BME280;58428;49.478;10.986;2024-02-26T08:10:45;96907.16;;;8.21;100.00
70815;BME280;58428;49.478;10.986;2024-02-26T08:13:12;96910.47;;;8.30;100.00
70815;BME280;58428;49.478;10.986;2024-02-26T08:15:37;96915.41;;;8.28;100.00
70815;BME280;58428;49.478;10.986;2024-02-26T08:18:03;96917.09;;;8.33;100.00
70815;BME280;58428;49.478;10.986;2024-02-26T08:20:30;96914.97;;;8.42;100.00
70815;BME280;58428;49.478;10.986;2024-02-26T08:22:56;96914.66;;;8.43;100.00
70815;BME280;58428;49.478;10.986;2024-02-26T08:25:23;96910.56;;;8.49;100.00
70815;BME280;58428;49.478;10.986;2024-02-26T08:28:02;96915.41;;;8.43;100.00
70815;BME280;58428;49.478;10.986;2024-02-26T08:30:28;96909.97;;;8.40;100.00
70815;BME280;58428;49.478;10.986;2024-02-26T08:32:54;96921.84;;;8.39;100.00
70815;BME280;58428;49.478;10.986;2024-02-26T08:35:20;96921.97;;;8.43;100.00
70815;BME280;58428;49.478;10.986;2024-02-26T08:37:46;96919.16;;;8.39;100.00
70815;BME280;58428;49.478;10.986;2024-02-26T08:40:11;96916.47;;;8.39;100.00
70815;BME280;58428;49.478;10.986;2024-02-26T08:42:37;96922.56;;;8.36;100.00
70815;BME280;58428;49.478;10.986;2024-02-26T08:45:03;96923.34;;;8.37;100.00
70815;BME280;58428;49.478;10.986;2024-02-26T08:47:28;96922.38;;;8.44;100.00
70815;BME280;58428;49.478;10.986;2024-02-26T08:49:54;96913.16;;;8.45;100.00
70815;BME280;58428;49.478;10.986;2024-02-26T08:52:41;96927.44;;;8.46;100.00
70815;BME280;58428;49.478;10.986;2024-02-26T08:55:26;96917.88;;;8.48;100.00
70815;BME280;58428;49.478;10.986;2024-02-26T08:57:54;96914.97;;;8.57;100.00
70815;BME280;58428;49.478;10.986;2024-02-26T09:00:23;96917.59;;;8.69;100.00
70815;BME280;58428;49.478;10.986;2024-02-26T09:02:48;96913.56;;;8.78;100.00
70815;BME280;58428;49.478;10.986;2024-02-26T09:05:20;96915.31;;;8.86;100.00
70815;BME280;58428;49.478;10.986;2024-02-26T09:07:45;96917.41;;;8.92;100.00
70815;BME280;58428;49.478;10.986;2024-02-26T09:10:11;96908.81;;;9.06;100.00
70815;BME280;58428;49.478;10.986;2024-02-26T09:12:38;96907.50;;;9.15;100.00
70815;BME280;58428;49.478;10.986;2024-02-26T09:15:08;96899.28;;;9.27;100.00
70815;BME280;58428;49.478;10.986;2024-02-26T09:17:34;96903.25;;;9.33;100.00
70815;BME280;58428;49.478;10.986;2024-02-26T09:19:59;96902.91;;;9.34;100.00
70815;BME280;58428;49.478;10.986;2024-02-26T09:22:28;96908.13;;;9.43;100.00
70815;BME280;58428;49.478;10.986;2024-02-26T09:24:53;96904.38;;;9.66;100.00
70815;BME280;58428;49.478;10.986;2024-02-26T09:27:27;96914.00;;;9.86;100.00
70815;BME280;58428;49.478;10.986;2024-02-26T09:29:55;96898.28;;;10.10;100.00
70815;BME280;58428;49.478;10.986;2024-02-26T09:32:22;96904.84;;;10.31;100.00
70815;BME280;58428;49.478;10.986;2024-02-26T09:34:50;96885.88;;;10.27;100.00
70815;BME280;58428;49.478;10.986;2024-02-26T09:37:25;96882.13;;;10.35;100.00
70815;BME280;58428;49.478;10.986;2024-02-26T09:39:53;96883.16;;;10.27;100.00
70815;BME280;58428;49.478;10.986;2024-02-26T09:42:19;96875.13;;;10.31;100.00
70815;BME280;58428;49.478;10.986;2024-02-26T09:44:45;96859.25;;;10.29;100.00
70815;BME280;58428;49.478;10.986;2024-02-26T09:47:11;96857.22;;;10.23;100.00
70815;BME280;58428;49.478;10.986;2024-02-26T09:49:41;96867.22;;;10.00;100.00
70815;BME280;58428;49.478;10.986;2024-02-26T09:52:08;96871.78;;;9.96;100.00
70815;BME280;58428;49.478;10.986;2024-02-26T09:54:35;96881.25;;;9.87;100.00
70815;BME280;58428;49.478;10.986;2024-02-26T09:57:02;96882.66;;;10.00;100.00
70815;BME280;58428;49.478;10.986;2024-02-26T09:59:39;96886.97;;;10.04;100.00
70815;BME280;58428;49.478;10.986;2024-02-26T10:02:24;96885.44;;;10.03;100.00
70815;BME280;58428;49.478;10.986;2024-02-26T10:04:51;96892.09;;;10.09;100.00
70815;BME280;58428;49.478;10.986;2024-02-26T10:07:18;96887.38;;;10.25;100.00
70815;BME280;58428;49.478;10.986;2024-02-26T10:09:45;96897.16;;;10.33;100.00
70815;BME280;58428;49.478;10.986;2024-02-26T10:12:14;96903.66;;;10.51;100.00
70815;BME280;58428;49.478;10.986;2024-02-26T10:14:45;96906.22;;;10.66;100.00
70815;BME280;58428;49.478;10.986;2024-02-26T10:17:11;96898.53;;;10.68;100.00
70815;BME280;58428;49.478;10.986;2024-02-26T10:19:41;96902.72;;;10.88;100.00
70815;BME280;58428;49.478;10.986;2024-02-26T10:22:07;96910.06;;;11.13;100.00
70815;BME280;58428;49.478;10.986;2024-02-26T10:24:32;96907.16;;;11.25;100.00
70815;BME280;58428;49.478;10.986;2024-02-26T10:26:59;96905.41;;;11.39;100.00
70815;BME280;58428;49.478;10.986;2024-02-26T10:29:28;96908.47;;;11.38;100.00
70815;BME280;58428;49.478;10.986;2024-02-26T10:31:53;96901.16;;;11.41;100.00
70815;BME280;58428;49.478;10.986;2024-02-26T10:34:20;96906.22;;;11.43;100.00
70815;BME280;58428;49.478;10.986;2024-02-26T10:36:47;96905.31;;;11.61;100.00
70815;BME280;58428;49.478;10.986;2024-02-26T10:39:13;96912.16;;;11.48;100.00
70815;BME280;58428;49.478;10.986;2024-02-26T10:41:40;96911.78;;;11.50;100.00
70815;BME280;58428;49.478;10.986;2024-02-26T10:44:09;96914.94;;;11.55;100.00
70815;BME280;58428;49.478;10.986;2024-02-26T10:46:37;96916.50;;;11.56;100.00
70815;BME280;58428;49.478;10.986;2024-02-26T10:49:05;96916.09;;;11.54;100.00
70815;BME280;58428;49.478;10.986;2024-02-26T10:51:35;96909.19;;;11.60;100.00
70815;BME280;58428;49.478;10.986;2024-02-26T10:54:04;96907.03;;;11.73;100.00
70815;BME280;58428;49.478;10.986;2024-02-26T10:56:34;96908.06;;;11.94;100.00
70815;BME280;58428;49.478;10.986;2024-02-26T10:59:02;96915.63;;;12.11;100.00
70815;BME280;58428;49.478;10.986;2024-02-26T11:01:28;96916.94;;;12.23;100.00
70815;BME280;58428;49.478;10.986;2024-02-26T11:03:56;96912.03;;;12.39;100.00
70815;BME280;58428;49.478;10.986;2024-02-26T11:06:23;96912.53;;;12.51;100.00
70815;BME280;58428;49.478;10.986;2024-02-26T11:08:51;96921.13;;;12.57;100.00
70815;BME280;58428;49.478;10.986;2024-02-26T11:11:17;96917.13;;;12.44;100.00
70815;BME280;58428;49.478;10.986;2024-02-26T11:13:47;96914.81;;;12.46;100.00
70815;BME280;58428;49.478;10.986;2024-02-26T11:16:21;96916.75;;;12.46;100.00
70815;BME280;58428;49.478;10.986;2024-02-26T11:18:48;96914.34;;;12.37;100.00
70815;BME280;58428;49.478;10.986;2024-02-26T11:21:19;96919.09;;;12.47;100.00
70815;BME280;58428;49.478;10.986;2024-02-26T11:24:15;96909.81;;;12.51;100.00
70815;BME280;58428;49.478;10.986;2024-02-26T11:27:04;96906.13;;;12.70;100.00
70815;BME280;58428;49.478;10.986;2024-02-26T11:29:49;96915.00;;;12.67;100.00
70815;BME280;58428;49.478;10.986;2024-02-26T11:32:16;96901.25;;;12.46;100.00
70815;BME280;58428;49.478;10.986;2024-02-26T11:34:42;96905.59;;;12.14;100.00
70815;BME280;58428;49.478;10.986;2024-02-26T11:37:17;96893.69;;;12.26;100.00
70815;BME280;58428;49.478;10.986;2024-02-26T11:40:11;96894.72;;;12.50;100.00
70815;BME280;58428;49.478;10.986;2024-02-26T11:42:53;96896.63;;;12.50;100.00
70815;BME280;58428;49.478;10.986;2024-02-26T11:48:16;96903.47;;;12.77;100.00
70815;BME280;58428;49.478;10.986;2024-02-26T11:50:49;96902.09;;;12.96;100.00
70815;BME280;58428;49.478;10.986;2024-02-26T11:53:23;96907.66;;;13.14;100.00
70815;BME280;58428;49.478;10.986;2024-02-26T11:58:40;96900.00;;;13.33;100.00
70815;BME280;58428;49.478;10.986;2024-02-26T12:01:45;96885.00;;;13.49;100.00
70815;BME280;58428;49.478;10.986;2024-02-26T12:04:27;96890.03;;;13.54;100.00
70815;BME280;58428;49.478;10.986;2024-02-26T12:06:57;96892.41;;;13.62;100.00
70815;BME280;58428;49.478;10.986;2024-02-26T12:09:51;96884.25;;;13.56;100.00
70815;BME280;58428;49.478;10.986;2024-02-26T12:12:18;96883.38;;;13.38;100.00
70815;BME280;58428;49.478;10.986;2024-02-26T12:15:00;96879.41;;;13.25;100.00
70815;BME280;58428;49.478;10.986;2024-02-26T12:17:28;96886.03;;;13.31;100.00
70815;BME280;58428;49.478;10.986;2024-02-26T12:19:53;96887.69;;;13.46;100.00
70815;BME280;58428;49.478;10.986;2024-02-26T12:22:19;96892.34;;;13.49;100.00
70815;BME280;58428;49.478;10.986;2024-02-26T12:24:48;96890.41;;;13.46;100.00
70815;BME280;58428;49.478;10.986;2024-02-26T12:27:29;96890.72;;;13.37;100.00
70815;BME280;58428;49.478;10.986;2024-02-26T12:29:54;96895.81;;;13.42;100.00
70815;BME280;58428;49.478;10.986;2024-02-26T12:32:23;96896.91;;;13.31;100.00
70815;BME280;58428;49.478;10.986;2024-02-26T12:34:50;96898.75;;;13.17;100.00
70815;BME280;58428;49.478;10.986;2024-02-26T12:37:16;96894.88;;;13.14;100.00
70815;BME280;58428;49.478;10.986;2024-02-26T12:39:45;96893.75;;;13.22;100.00
70815;BME280;58428;49.478;10.986;2024-02-26T12:42:11;96894.97;;;13.31;100.00
70815;BME280;58428;49.478;10.986;2024-02-26T12:44:39;96901.19;;;13.35;100.00
70815;BME280;58428;49.478;10.986;2024-02-26T12:47:05;96902.47;;;13.52;100.00
70815;BME280;58428;49.478;10.986;2024-02-26T12:49:34;96899.78;;;13.62;100.00
70815;BME280;58428;49.478;10.986;2024-02-26T12:52:05;96899.38;;;13.60;100.00
70815;BME280;58428;49.478;10.986;2024-02-26T12:54:35;96900.16;;;13.60;100.00
70815;BME280;58428;49.478;10.986;2024-02-26T12:57:04;96892.81;;;13.61;100.00
70815;BME280;58428;49.478;10.986;2024-02-26T12:59:36;96905.25;;;13.65;100.00